Time;durP1;ratioP1;P1;durP2;ratioP2;P2;SDS_P1;SDS_P2;PMS_P1;PMS_P2;Temp;Humidity;BMP_temperature;BMP_pressure;BME280_temperature;BME280_humidity;BME280_pressure;Samples;Min_cycle;Max_cycle;Signal;HPM_P1;HPM_P2
2022/06/01 00:01:18;;;;;;;6.70;2.53;;;20.70;67.70;;;;;;5093147;28;20032;-68
2022/06/01 00:03:44;;;;;;;5.65;2.72;;;20.60;67.70;;;;;;5092785;28;20032;-69
2022/06/01 00:06:11;;;;;;;5.72;2.60;;;20.60;67.90;;;;;;5092834;28;20514;-68
2022/06/01 00:08:38;;;;;;;6.68;2.80;;;20.40;68.00;;;;;;5092969;28;20537;-68
2022/06/01 00:11:04;;;;;;;9.75;3.30;;;20.30;68.50;;;;;;5092982;28;20077;-71
2022/06/01 00:13:30;;;;;;;6.18;2.92;;;20.20;68.80;;;;;;5092848;28;20107;-68
2022/06/01 00:15:56;;;;;;;8.23;2.88;;;20.10;69.00;;;;;;5092807;28;20039;-68
2022/06/01 00:18:23;;;;;;;4.80;2.50;;;20.10;69.10;;;;;;5092816;28;20032;-68
2022/06/01 00:20:50;;;;;;;8.35;2.85;;;20.10;69.30;;;;;;5092997;28;20043;-69
2022/06/01 00:23:17;;;;;;;5.28;2.65;;;20.10;69.50;;;;;;5092836;28;20028;-68
2022/06/01 00:25:43;;;;;;;9.88;3.22;;;20.10;69.60;;;;;;5092588;28;20064;-69
2022/06/01 00:28:09;;;;;;;7.68;3.03;;;20.10;69.60;;;;;;5092786;28;20120;-69
2022/06/01 00:30:34;;;;;;;10.95;2.50;;;20.10;69.50;;;;;;5092851;28;20105;-68
2022/06/01 00:33:00;;;;;;;7.32;2.70;;;20.10;69.50;;;;;;5092554;28;20032;-68
2022/06/01 00:35:26;;;;;;;6.53;2.60;;;20.10;69.80;;;;;;5092397;28;20135;-68
2022/06/01 00:37:52;;;;;;;6.70;2.88;;;20.00;69.90;;;;;;5092689;28;20032;-68
2022/06/01 00:40:21;;;;;;;6.15;3.30;;;20.00;70.00;;;;;;5092725;28;20052;-69
2022/06/01 00:42:50;;;;;;;9.55;3.08;;;20.00;70.10;;;;;;5092717;28;20028;-68
2022/06/01 00:45:20;;;;;;;7.35;2.80;;;20.00;70.00;;;;;;5092743;28;20400;-68
2022/06/01 00:47:46;;;;;;;7.93;2.65;;;20.00;69.90;;;;;;5092741;28;20119;-68
2022/06/01 00:50:19;;;;;;;5.55;2.83;;;20.00;70.20;;;;;;5092910;28;20039;-68
2022/06/01 00:53:23;;;;;;;7.80;3.22;;;20.00;70.40;;;;;;5092498;28;20122;-69
2022/06/01 00:55:54;;;;;;;6.65;2.78;;;20.00;70.40;;;;;;5058465;28;20485;-68
2022/06/01 00:58:30;;;;;;;7.03;2.67;;;20.00;70.40;;;;;;5090818;28;20094;-73
2022/06/01 01:00:58;;;;;;;8.32;3.40;;;20.00;70.40;;;;;;5089435;28;20032;-68
2022/06/01 01:03:26;;;;;;;6.10;2.95;;;20.00;70.50;;;;;;5092305;28;20047;-69
2022/06/01 01:06:01;;;;;;;6.28;2.72;;;20.00;70.30;;;;;;5095753;28;20497;-69
2022/06/01 01:08:27;;;;;;;6.53;3.03;;;20.00;70.20;;;;;;5096301;28;20028;-68
2022/06/01 01:10:52;;;;;;;4.35;2.78;;;20.00;70.40;;;;;;5096446;28;20429;-69
2022/06/01 01:13:18;;;;;;;9.30;2.92;;;20.00;70.30;;;;;;5096125;28;20074;-68
2022/06/01 01:15:58;;;;;;;14.07;2.95;;;20.00;70.40;;;;;;5096040;28;20036;-68
2022/06/01 01:18:30;;;;;;;4.90;2.63;;;20.00;70.30;;;;;;5095819;28;20040;-69
2022/06/01 01:21:08;;;;;;;6.13;2.38;;;20.00;70.20;;;;;;5095734;28;20123;-68
2022/06/01 01:24:00;;;;;;;6.15;2.47;;;20.00;70.30;;;;;;5095941;28;20089;-68
2022/06/01 01:26:28;;;;;;;4.85;2.53;;;20.00;70.00;;;;;;5095933;28;20056;-68
2022/06/01 01:28:54;;;;;;;6.93;2.53;;;20.00;70.00;;;;;;5095723;28;20061;-68
2022/06/01 01:31:24;;;;;;;5.85;2.58;;;20.00;70.00;;;;;;5095709;28;20032;-68
2022/06/01 01:33:53;;;;;;;6.55;2.85;;;20.00;70.20;;;;;;5096059;28;20088;-68
2022/06/01 01:36:25;;;;;;;5.18;2.40;;;20.00;70.40;;;;;;5095509;28;20066;-68
2022/06/01 01:38:56;;;;;;;8.55;2.47;;;20.00;70.10;;;;;;5095730;28;20093;-68
2022/06/01 01:41:28;;;;;;;14.23;2.90;;;19.90;69.80;;;;;;5095587;28;20070;-68
2022/06/01 01:43:57;;;;;;;7.10;2.67;;;19.90;70.00;;;;;;5095493;28;20032;-68
2022/06/01 01:46:23;;;;;;;8.93;2.92;;;19.80;70.00;;;;;;5095389;28;20553;-68
2022/06/01 01:48:49;;;;;;;5.82;2.60;;;19.70;70.30;;;;;;5095322;28;20112;-68
2022/06/01 01:51:22;;;;;;;9.82;2.88;;;19.60;70.60;;;;;;5095760;28;20074;-69
2022/06/01 01:53:49;;;;;;;8.15;3.13;;;19.50;70.90;;;;;;5095456;28;20051;-68
2022/06/01 01:56:41;;;;;;;6.95;2.90;;;19.50;71.10;;;;;;5095414;28;20125;-73
2022/06/01 01:59:44;;;;;;;5.15;2.85;;;19.40;71.50;;;;;;5095103;28;20451;-69
2022/06/01 02:02:18;;;;;;;7.28;2.95;;;19.30;71.70;;;;;;5095321;28;20538;-68
2022/06/01 02:07:51;;;;;;;4.30;2.80;;;19.30;71.90;;;;;;5095240;28;20426;-69
2022/06/01 02:13:02;;;;;;;6.93;3.10;;;19.40;71.50;;;;;;5095102;28;20055;-68
2022/06/01 02:15:37;;;;;;;6.20;2.90;;;19.40;71.50;;;;;;5094046;28;20020;-69
2022/06/01 02:18:08;;;;;;;4.63;2.60;;;19.30;71.80;;;;;;5095361;28;20036;-69
2022/06/01 02:20:42;;;;;;;6.43;2.58;;;19.30;71.60;;;;;;5095133;28;20408;-69
2022/06/01 02:23:13;;;;;;;4.50;2.55;;;19.30;71.70;;;;;;5094913;28;20480;-68
2022/06/01 02:25:41;;;;;;;5.10;2.50;;;19.40;71.80;;;;;;5094717;28;20048;-69
2022/06/01 02:28:08;;;;;;;8.80;2.72;;;19.40;71.80;;;;;;5094766;28;20102;-68
2022/06/01 02:30:39;;;;;;;11.25;2.67;;;19.30;71.70;;;;;;5094942;28;20047;-68
2022/06/01 02:33:10;;;;;;;7.10;2.50;;;19.40;72.00;;;;;;5094689;28;20223;-69
2022/06/01 02:35:39;;;;;;;4.13;2.53;;;19.40;71.90;;;;;;5094317;28;20060;-70
2022/06/01 02:38:12;;;;;;;6.32;2.70;;;19.30;71.80;;;;;;5094635;28;20032;-70
2022/06/01 02:40:39;;;;;;;5.45;2.67;;;19.30;71.70;;;;;;5094646;28;20089;-68
2022/06/01 02:43:05;;;;;;;4.72;2.28;;;19.40;71.80;;;;;;5094354;28;20123;-68
2022/06/01 02:45:30;;;;;;;7.80;2.45;;;19.30;71.70;;;;;;5094098;28;20119;-68
2022/06/01 02:47:59;;;;;;;8.35;2.70;;;19.40;71.80;;;;;;5094492;28;20028;-68
2022/06/01 02:50:27;;;;;;;12.05;2.65;;;19.30;71.50;;;;;;5094369;28;20044;-68
2022/06/01 02:52:53;;;;;;;7.25;2.65;;;19.30;71.40;;;;;;5094189;28;20468;-68
2022/06/01 02:55:21;;;;;;;7.43;2.30;;;19.30;71.60;;;;;;5094229;28;20489;-68
2022/06/01 02:57:47;;;;;;;7.75;2.60;;;19.30;71.50;;;;;;5094282;28;20024;-68
2022/06/01 03:00:19;;;;;;;8.35;2.75;;;19.30;71.10;;;;;;5094155;28;20069;-68
2022/06/01 03:02:46;;;;;;;;;;;19.30;71.10;;;;;;5076214;28;20401;-68
2022/06/01 03:05:14;;;;;;;9.13;3.03;;;19.20;71.30;;;;;;5093944;28;19916;-68
2022/06/01 03:07:40;;;;;;;10.40;3.67;;;19.10;71.60;;;;;;5094128;28;20032;-68
2022/06/01 03:10:06;;;;;;;5.85;3.05;;;19.00;71.90;;;;;;5093948;28;20492;-71
2022/06/01 03:12:31;;;;;;;6.13;2.90;;;18.90;72.40;;;;;;5094101;28;20040;-69
2022/06/01 03:14:57;;;;;;;6.93;2.85;;;18.80;72.60;;;;;;5093612;28;20063;-69
2022/06/01 03:17:23;;;;;;;3.55;2.95;;;18.80;72.70;;;;;;5094110;28;20036;-68
2022/06/01 03:19:48;;;;;;;6.07;3.22;;;18.70;72.80;;;;;;5094048;28;20122;-68
2022/06/01 03:22:14;;;;;;;4.68;2.70;;;18.70;72.70;;;;;;5093903;28;20032;-69
2022/06/01 03:24:40;;;;;;;8.02;3.00;;;18.70;72.70;;;;;;5093639;28;20067;-69
2022/06/01 03:27:07;;;;;;;9.57;3.10;;;18.70;73.30;;;;;;5093612;28;20437;-71
2022/06/01 03:29:33;;;;;;;5.50;3.05;;;18.70;72.70;;;;;;5093634;28;20035;-69
2022/06/01 03:31:59;;;;;;;6.35;2.83;;;18.70;72.80;;;;;;5093643;28;20067;-72
2022/06/01 03:34:26;;;;;;;6.28;3.13;;;18.70;72.90;;;;;;5093445;28;20051;-69
2022/06/01 03:36:52;;;;;;;6.32;3.08;;;18.70;73.00;;;;;;5093453;28;20039;-72
2022/06/01 03:39:17;;;;;;;8.20;3.22;;;18.70;73.00;;;;;;5093402;28;20036;-68
2022/06/01 03:41:43;;;;;;;9.35;3.03;;;18.80;73.00;;;;;;5093314;28;20392;-69
2022/06/01 03:47:00;;;;;;;6.78;2.90;;;18.80;73.10;;;;;;5093407;28;20135;-68
2022/06/01 03:49:26;;;;;;;6.57;2.95;;;18.80;73.10;;;;;;5093130;28;20056;-68
2022/06/01 03:51:51;;;;;;;7.53;2.83;;;18.80;73.10;;;;;;5093363;28;20067;-69
2022/06/01 03:54:17;;;;;;;7.68;2.80;;;18.80;73.20;;;;;;5092763;28;20033;-69
2022/06/01 03:56:44;;;;;;;9.70;2.85;;;18.80;73.10;;;;;;5093306;28;20033;-69
2022/06/01 03:59:09;;;;;;;6.00;2.83;;;18.80;73.00;;;;;;5093050;28;20036;-69
2022/06/01 04:01:35;;;;;;;7.43;2.55;;;18.80;73.00;;;;;;5093021;28;20042;-67
2022/06/01 04:04:01;;;;;;;7.70;3.05;;;18.80;73.00;;;;;;5093193;28;20152;-69
2022/06/01 04:06:26;;;;;;;5.32;2.70;;;18.80;73.20;;;;;;5092964;28;20078;-68
2022/06/01 04:08:52;;;;;;;4.15;2.50;;;18.90;73.10;;;;;;5093115;28;20028;-68
2022/06/01 04:11:17;;;;;;;15.05;3.72;;;18.80;73.00;;;;;;5093258;28;20032;-69
2022/06/01 04:13:43;;;;;;;10.82;3.00;;;18.80;73.00;;;;;;5092822;28;20032;-71
2022/06/01 04:16:09;;;;;;;7.18;2.72;;;18.80;73.00;;;;;;5093043;28;20032;-68
2022/06/01 04:18:35;;;;;;;10.38;2.72;;;18.80;73.00;;;;;;5092812;28;20032;-70
2022/06/01 04:21:01;;;;;;;6.82;3.00;;;18.70;73.80;;;;;;5092973;28;20040;-68
2022/06/01 04:23:27;;;;;;;8.45;3.13;;;18.70;74.20;;;;;;5093020;28;20028;-68
2022/06/01 04:25:52;;;;;;;8.90;3.13;;;18.70;73.90;;;;;;5092918;28;20109;-68
2022/06/01 04:28:18;;;;;;;7.60;2.85;;;18.70;73.90;;;;;;5093013;28;20086;-68
2022/06/01 04:30:44;;;;;;;10.75;3.10;;;18.70;74.20;;;;;;5092960;28;20457;-68
2022/06/01 04:33:10;;;;;;;9.50;3.40;;;18.70;74.30;;;;;;5092751;28;20085;-67
2022/06/01 04:35:36;;;;;;;15.50;3.63;;;18.70;74.10;;;;;;5092635;28;20056;-68
2022/06/01 04:38:13;;;;;;;17.02;3.42;;;18.70;74.00;;;;;;5095309;28;20035;-68
2022/06/01 04:40:43;;;;;;;9.23;3.40;;;18.70;73.90;;;;;;5096949;28;20119;-68
2022/06/01 04:43:08;;;;;;;14.25;3.50;;;18.70;74.00;;;;;;5097115;28;20107;-72
2022/06/01 04:45:34;;;;;;;10.70;3.47;;;18.70;74.10;;;;;;5096886;28;20441;-68
2022/06/01 04:48:00;;;;;;;7.53;3.28;;;18.70;74.30;;;;;;5097211;28;20035;-72
2022/06/01 04:50:25;;;;;;;9.68;3.25;;;18.80;74.50;;;;;;5096395;28;20040;-68
2022/06/01 04:52:51;;;;;;;10.40;3.08;;;18.80;74.60;;;;;;5096450;28;20031;-68
2022/06/01 04:55:17;;;;;;;8.73;3.00;;;18.70;74.60;;;;;;5096649;28;20032;-67
2022/06/01 04:57:42;;;;;;;10.57;3.30;;;18.80;75.20;;;;;;5096710;28;20424;-68
2022/06/01 05:00:10;;;;;;;11.25;3.03;;;18.70;74.80;;;;;;5096639;28;20079;-67
2022/06/01 05:02:37;;;;;;;8.07;2.83;;;18.80;75.00;;;;;;5096905;28;20052;-68
2022/06/01 05:05:03;;;;;;;7.38;3.22;;;18.80;75.10;;;;;;5096026;28;20047;-68
2022/06/01 05:07:29;;;;;;;4.85;2.80;;;18.80;75.00;;;;;;5095997;28;20024;-68
2022/06/01 05:09:55;;;;;;;8.70;3.28;;;18.90;74.80;;;;;;5095420;28;20469;-68
2022/06/01 05:12:20;;;;;;;8.57;2.90;;;18.90;74.80;;;;;;5096464;28;20028;-69
2022/06/01 05:14:46;;;;;;;8.35;3.10;;;18.90;74.70;;;;;;5095302;28;20126;-68
2022/06/01 05:17:12;;;;;;;6.28;2.97;;;19.00;75.00;;;;;;5095506;28;20030;-65
2022/06/01 05:19:37;;;;;;;7.65;2.90;;;19.00;75.50;;;;;;5096140;28;20059;-66
2022/06/01 05:22:03;;;;;;;8.50;2.88;;;19.10;75.40;;;;;;5095690;28;20036;-66
2022/06/01 05:24:29;;;;;;;11.55;3.22;;;19.10;74.80;;;;;;5095830;28;20036;-68
2022/06/01 05:26:55;;;;;;;10.32;2.80;;;19.20;75.00;;;;;;5095855;28;20052;-70
2022/06/01 05:29:22;;;;;;;7.05;3.45;;;19.20;75.00;;;;;;5096088;28;20032;-65
2022/06/01 05:31:49;;;;;;;5.40;2.83;;;19.20;74.80;;;;;;5095779;28;20040;-65
2022/06/01 05:34:14;;;;;;;6.80;2.80;;;19.20;74.90;;;;;;5075208;28;20047;-65
2022/06/01 05:36:40;;;;;;;7.57;3.33;;;19.10;74.80;;;;;;5075125;28;20844;-66
2022/06/01 05:39:06;;;;;;;6.35;3.65;;;19.20;74.90;;;;;;5074903;28;20044;-65
2022/06/01 05:41:31;;;;;;;8.45;3.53;;;19.20;75.20;;;;;;5075114;28;20037;-65
2022/06/01 05:43:57;;;;;;;7.95;3.25;;;19.20;75.00;;;;;;5075114;28;20536;-65
2022/06/01 05:46:23;;;;;;;7.75;3.08;;;19.20;74.70;;;;;;5075025;28;20047;-66
2022/06/01 05:48:49;;;;;;;7.15;3.30;;;19.30;75.60;;;;;;5074737;28;20033;-65
2022/06/01 05:51:15;;;;;;;9.43;3.22;;;19.30;74.80;;;;;;5075157;28;20037;-65
2022/06/01 05:53:41;;;;;;;7.55;3.22;;;19.30;75.60;;;;;;5075127;28;20040;-65
2022/06/01 05:56:07;;;;;;;9.80;3.08;;;19.30;75.90;;;;;;5073590;28;20179;-67
2022/06/01 05:58:32;;;;;;;8.70;3.28;;;19.40;75.20;;;;;;5048949;28;20069;-67
2022/06/01 06:01:03;;;;;;;8.00;3.15;;;19.40;75.60;;;;;;5075154;28;20059;-68
2022/06/01 06:03:28;;;;;;;8.05;3.40;;;19.50;75.20;;;;;;5074937;28;20503;-69
2022/06/01 06:06:15;;;;;;;8.38;2.90;;;19.50;74.80;;;;;;5074739;28;20037;-69
2022/06/01 06:08:53;;;;;;;7.88;3.13;;;19.60;74.80;;;;;;5074876;28;20040;-69
2022/06/01 06:11:20;;;;;;;11.25;3.80;;;19.60;74.70;;;;;;5074728;28;20131;-64
2022/06/01 06:13:46;;;;;;;11.38;2.97;;;19.70;74.00;;;;;;5075020;28;20025;-73
2022/06/01 06:16:14;;;;;;;5.95;2.90;;;19.70;73.90;;;;;;5074634;28;20507;-73
2022/06/01 06:18:40;;;;;;;10.10;3.05;;;19.70;73.90;;;;;;5074744;28;20029;-65
2022/06/01 06:21:07;;;;;;;10.07;3.10;;;19.70;74.10;;;;;;5073881;28;20040;-66
2022/06/01 06:23:33;;;;;;;7.65;2.70;;;19.70;74.30;;;;;;5072555;28;20029;-66
2022/06/01 06:25:58;;;;;;;7.90;3.05;;;19.80;74.10;;;;;;5073011;28;20032;-65
2022/06/01 06:28:25;;;;;;;6.82;3.17;;;19.80;73.90;;;;;;5073108;28;20139;-69
2022/06/01 06:30:51;;;;;;;6.18;3.10;;;19.90;74.70;;;;;;5073624;28;20029;-66
2022/06/01 06:33:17;;;;;;;7.30;2.90;;;19.90;74.50;;;;;;5074393;28;20115;-69
2022/06/01 06:35:44;;;;;;;16.83;3.55;;;20.00;73.90;;;;;;5074303;28;20128;-68
2022/06/01 06:38:10;;;;;;;8.13;2.65;;;20.00;73.70;;;;;;5074716;28;20389;-69
2022/06/01 06:40:37;;;;;;;5.60;2.65;;;20.20;73.80;;;;;;5074351;28;20419;-68
2022/06/01 06:43:02;;;;;;;11.10;3.15;;;20.30;73.50;;;;;;5074237;28;20400;-69
2022/06/01 06:45:28;;;;;;;11.18;2.60;;;20.40;73.20;;;;;;5074167;28;20040;-70
2022/06/01 06:47:54;;;;;;;11.23;2.80;;;20.40;72.80;;;;;;5073945;28;20073;-70
2022/06/01 06:50:21;;;;;;;7.55;2.97;;;20.60;72.70;;;;;;5073979;28;20572;-73
2022/06/01 06:52:46;;;;;;;9.27;3.05;;;20.70;72.20;;;;;;5074337;28;20086;-69
2022/06/01 06:55:12;;;;;;;5.57;2.63;;;20.70;71.70;;;;;;5073902;28;20036;-76
2022/06/01 06:57:38;;;;;;;9.80;3.17;;;20.80;71.20;;;;;;5073940;28;20031;-68
2022/06/01 07:00:07;;;;;;;8.30;2.80;;;20.90;71.00;;;;;;5073623;28;20041;-69
2022/06/01 07:02:34;;;;;;;7.28;2.50;;;21.00;70.80;;;;;;5073869;28;20111;-69
2022/06/01 07:04:59;;;;;;;8.13;3.25;;;21.10;71.10;;;;;;5074340;28;20029;-69
2022/06/01 07:07:25;;;;;;;13.43;3.35;;;21.10;71.00;;;;;;5074130;28;20094;-69
2022/06/01 07:09:51;;;;;;;9.73;3.40;;;21.20;70.90;;;;;;5074112;28;20032;-68
2022/06/01 07:12:16;;;;;;;5.85;3.00;;;21.20;70.90;;;;;;5073845;28;20033;-73
2022/06/01 07:14:42;;;;;;;15.95;3.47;;;21.30;70.80;;;;;;5073659;28;20060;-68
2022/06/01 07:17:08;;;;;;;7.47;2.83;;;21.40;70.60;;;;;;5073790;28;20032;-69
2022/06/01 07:19:33;;;;;;;7.20;3.38;;;21.40;70.70;;;;;;5073861;28;20389;-76
2022/06/01 07:21:59;;;;;;;10.63;3.20;;;21.50;70.20;;;;;;5073877;28;20440;-68
2022/06/01 07:24:24;;;;;;;7.50;2.83;;;21.60;70.40;;;;;;5071952;28;20044;-77
2022/06/01 07:26:50;;;;;;;9.30;2.80;;;21.70;70.60;;;;;;5073504;28;20489;-75
2022/06/01 07:29:18;;;;;;;13.57;3.17;;;21.70;70.40;;;;;;5073637;28;20036;-69
2022/06/01 07:31:45;;;;;;;11.05;3.22;;;21.80;70.80;;;;;;5073814;28;20642;-75
2022/06/01 07:34:12;;;;;;;8.65;3.22;;;21.90;71.00;;;;;;5072949;28;20067;-69
2022/06/01 07:36:38;;;;;;;9.48;3.22;;;21.90;70.60;;;;;;5073384;28;20060;-75
2022/06/01 07:44:38;;;;;;;11.35;3.33;;;22.10;70.70;;;;;;5073754;28;20120;-68
2022/06/01 07:47:05;;;;;;;15.13;3.30;;;22.20;71.30;;;;;;5073136;28;20090;-68
2022/06/01 07:49:31;;;;;;;10.55;3.45;;;22.20;70.90;;;;;;5073594;28;20035;-68
2022/06/01 07:51:56;;;;;;;8.43;3.70;;;22.30;70.30;;;;;;5073485;28;20111;-68
2022/06/01 07:54:23;;;;;;;9.02;3.05;;;22.30;70.20;;;;;;5073321;28;20528;-68
2022/06/01 07:56:49;;;;;;;9.43;3.15;;;22.40;70.70;;;;;;5072926;28;20507;-68
2022/06/01 07:59:14;;;;;;;12.30;3.50;;;22.50;70.80;;;;;;5073359;28;20033;-68
2022/06/01 08:01:40;;;;;;;8.55;3.22;;;22.50;69.80;;;;;;5073194;28;20029;-69
2022/06/01 08:04:07;;;;;;;14.85;3.63;;;22.60;69.60;;;;;;5073335;28;20029;-69
2022/06/01 08:06:34;;;;;;;12.63;3.90;;;22.70;69.60;;;;;;5073330;28;20127;-69
2022/06/01 08:09:00;;;;;;;11.18;3.80;;;22.80;70.20;;;;;;5073232;28;20066;-68
2022/06/01 08:14:13;;;;;;;10.63;3.70;;;22.90;69.00;;;;;;5073751;28;20040;-68
2022/06/01 08:16:40;;;;;;;11.15;3.75;;;23.00;68.90;;;;;;5073306;28;20025;-69
2022/06/01 08:19:07;;;;;;;9.20;3.55;;;23.00;68.70;;;;;;5073222;28;20489;-69
2022/06/01 08:21:34;;;;;;;12.52;3.40;;;23.00;68.20;;;;;;5072949;28;20032;-69
2022/06/01 08:24:00;;;;;;;11.50;3.17;;;23.10;68.50;;;;;;5072936;28;20119;-69
2022/06/01 08:26:26;;;;;;;10.18;3.33;;;23.20;68.00;;;;;;5073052;28;20096;-69
2022/06/01 08:28:52;;;;;;;10.63;3.65;;;23.30;68.30;;;;;;5073068;28;20495;-69
2022/06/01 08:31:18;;;;;;;10.52;3.40;;;23.30;69.20;;;;;;5072861;28;20036;-69
2022/06/01 08:33:43;;;;;;;8.63;3.55;;;23.40;68.60;;;;;;5072885;28;20051;-74
2022/06/01 08:36:09;;;;;;;7.28;3.10;;;23.50;67.60;;;;;;5072747;28;20496;-69
2022/06/01 08:38:35;;;;;;;10.15;3.42;;;23.60;67.10;;;;;;5072984;28;20039;-70
2022/06/01 08:41:09;;;;;;;7.70;3.20;;;23.60;67.60;;;;;;5073134;28;20040;-69
2022/06/01 08:43:50;;;;;;;8.00;3.30;;;23.70;66.70;;;;;;5072782;28;20036;-68
2022/06/01 08:46:17;;;;;;;11.85;3.60;;;23.80;67.00;;;;;;5072768;28;20055;-69
2022/06/01 08:48:57;;;;;;;16.92;3.58;;;23.80;67.00;;;;;;5072749;28;20103;-69
2022/06/01 08:51:26;;;;;;;14.27;3.67;;;23.90;66.50;;;;;;5072851;28;20473;-68
2022/06/01 08:53:52;;;;;;;10.98;3.42;;;23.90;65.90;;;;;;5072745;28;20509;-69
2022/06/01 08:56:26;;;;;;;11.23;3.60;;;24.00;65.80;;;;;;5072603;28;20040;-68
2022/06/01 08:59:13;;;;;;;18.80;4.50;;;24.00;65.80;;;;;;5072576;28;20056;-68
2022/06/01 09:01:50;;;;;;;9.68;3.35;;;24.00;66.20;;;;;;5072779;28;20039;-69
2022/06/01 09:04:34;;;;;;;11.50;3.70;;;24.10;66.50;;;;;;5072926;28;20120;-69
2022/06/01 09:07:29;;;;;;;8.55;3.40;;;24.20;65.30;;;;;;5072733;28;20157;-68
2022/06/01 09:10:15;;;;;;;7.10;3.47;;;24.20;64.80;;;;;;5072548;28;20143;-69
2022/06/01 09:12:42;;;;;;;10.07;3.75;;;24.30;65.10;;;;;;5071824;28;20068;-73
2022/06/01 09:15:21;;;;;;;13.23;3.72;;;24.20;64.60;;;;;;5072433;28;20037;-69
2022/06/01 09:31:23;;;;;;;14.88;3.83;;;24.30;64.50;;;;;;5111135;27;20154;-71
2022/06/01 09:33:49;;;;;;;9.73;3.63;;;24.20;65.30;;;;;;5110826;28;20111;-68
2022/06/01 09:36:26;;;;;;;12.57;4.13;;;24.30;65.60;;;;;;5111161;28;20126;-68
2022/06/01 09:38:55;;;;;;;13.13;3.90;;;24.40;65.90;;;;;;5110585;28;20012;-74
2022/06/01 09:41:23;;;;;;;11.48;4.10;;;24.50;65.20;;;;;;5110909;28;20107;-68
2022/06/01 09:43:55;;;;;;;7.85;3.83;;;24.60;64.20;;;;;;5110750;28;20042;-67
2022/06/01 09:46:34;;;;;;;9.30;4.35;;;24.70;64.60;;;;;;5110346;28;20030;-67
2022/06/01 09:49:05;;;;;;;14.85;3.88;;;24.80;62.40;;;;;;5110118;28;20027;-67
2022/06/01 09:51:34;;;;;;;10.55;3.58;;;25.00;63.40;;;;;;5109597;28;20020;-72
2022/06/01 09:54:13;;;;;;;8.05;3.65;;;25.00;63.10;;;;;;5107571;28;20024;-68
2022/06/01 09:56:45;;;;;;;13.55;4.00;;;25.20;63.30;;;;;;5107724;28;20126;-68
2022/06/01 10:07:44;;;;;;;12.73;4.25;;;25.30;61.90;;;;;;5110297;28;20042;-67
2022/06/01 10:10:20;;;;;;;13.82;4.28;;;;;;;;;;5109703;28;20035;-69
2022/06/01 10:12:48;;;;;;;12.50;4.18;;;;;;;;;;5110045;28;20031;-69
2022/06/01 10:15:20;;;;;;;13.70;4.28;;;;;;;;;;5109262;28;20111;-69
2022/06/01 10:17:49;;;;;;;10.80;4.20;;;;;;;;;;5106693;28;20408;-69
2022/06/01 10:20:21;;;;;;;10.07;3.17;;;;;;;;;;5107191;28;20110;-70
2022/06/01 10:22:50;;;;;;;9.52;3.50;;;;;;;;;;5108718;28;20039;-70
2022/06/01 10:25:18;;;;;;;8.32;3.72;;;;;;;;;;5109109;28;20031;-71
2022/06/01 10:27:58;;;;;;;10.88;3.50;;;;;;;;;;5109484;28;20464;-71
2022/06/01 10:30:34;;;;;;;13.40;3.88;;;;;;;;;;5109299;28;20512;-70
2022/06/01 10:33:04;;;;;;;11.98;3.65;;;;;;;;;;5109312;28;20028;-70
2022/06/01 10:35:41;;;;;;;13.93;3.90;;;;;;;;;;5109104;28;20026;-70
2022/06/01 10:38:10;;;;;;;18.55;3.75;;;;;;;;;;5108031;28;20028;-69
2022/06/01 10:40:48;;;;;;;10.25;3.25;;;;;;;;;;5105852;28;20476;-69
2022/06/01 10:43:17;;;;;;;11.73;4.28;;;;;;;;;;5095931;28;20043;-71
2022/06/01 10:45:47;;;;;;;12.43;3.33;;;;;;;;;;5095236;28;20031;-69
2022/06/01 10:48:13;;;;;;;10.00;3.35;;;;;;;;;;5094906;28;20043;-69
2022/06/01 10:50:41;;;;;;;10.95;4.18;;;;;;;;;;5095206;28;20036;-70
2022/06/01 10:53:17;;;;;;;9.07;3.72;;;;;;;;;;5095417;28;20027;-70
2022/06/01 10:55:44;;;;;;;10.32;3.67;;;;;;;;;;5093526;28;20519;-70
2022/06/01 10:58:21;;;;;;;7.43;3.17;;;;;;;;;;5095844;28;20100;-70
2022/06/01 11:00:56;;;;;;;10.00;3.35;;;;;;;;;;5096134;28;20032;-70
2022/06/01 11:03:29;;;;;;;8.85;3.20;;;;;;;;;;5095415;28;20024;-70
2022/06/01 11:06:14;;;;;;;8.90;3.45;;;;;;;;;;5095119;28;20430;-70
2022/06/01 11:08:40;;;;;;;8.00;3.00;;;;;;;;;;5093851;28;20024;-70
2022/06/01 11:11:06;;;;;;;10.02;3.17;;;;;;;;;;5094498;28;20111;-70
2022/06/01 11:13:35;;;;;;;11.68;3.03;;;;;;;;;;5094730;28;20019;-70
2022/06/01 11:16:10;;;;;;;9.68;3.08;;;;;;;;;;5095124;28;20038;-70
2022/06/01 11:18:39;;;;;;;11.35;3.22;;;;;;;;;;5095220;28;20032;-69
2022/06/01 11:21:12;;;;;;;10.68;3.05;;;;;;;;;;5094083;28;20074;-70
2022/06/01 11:23:56;;;;;;;13.00;3.67;;;;;;;;;;5090072;28;20111;-69
2022/06/01 11:26:22;;;;;;;9.35;2.92;;;;;;;;;;5089664;28;20028;-69
2022/06/01 11:28:51;;;;;;;10.43;3.00;;;;;;;;;;5088806;28;20103;-70
2022/06/01 11:31:19;;;;;;;7.65;2.70;;;;;;;;;;5091213;28;20055;-70
2022/06/01 11:33:50;;;;;;;10.68;2.90;;;;;;;;;;5091704;28;20446;-69
2022/06/01 11:36:28;;;;;;;6.75;3.00;;;;;;;;;;5093685;28;20371;-70
2022/06/01 11:39:04;;;;;;;9.65;3.83;;;;;;;;;;5094452;28;20115;-69
2022/06/01 11:41:32;;;;;;;7.68;3.10;;;;;;;;;;5094473;28;20017;-70
2022/06/01 11:44:01;;;;;;;7.28;2.97;;;;;;;;;;5094484;28;20103;-70
2022/06/01 11:46:39;;;;;;;9.90;3.00;;;;;;;;;;5093618;28;20388;-69
2022/06/01 11:49:11;;;;;;;8.60;3.53;;;;;;;;;;5093753;28;20032;-69
2022/06/01 11:51:37;;;;;;;9.50;3.50;;;;;;;;;;5094427;28;20020;-70
2022/06/01 11:54:26;;;;;;;9.25;3.10;;;;;;;;;;5092319;28;20085;-70
2022/06/01 11:56:54;;;;;;;8.90;3.20;;;;;;;;;;5091392;28;20490;-71
2022/06/01 11:59:22;;;;;;;9.80;2.90;;;;;;;;;;5092275;28;20043;-70
2022/06/01 12:01:52;;;;;;;8.52;3.00;;;;;;;;;;5094436;28;20077;-70
2022/06/01 12:04:21;;;;;;;9.10;3.05;;;;;;;;;;5094098;28;20065;-70
2022/06/01 12:07:06;;;;;;;11.48;2.80;;;;;;;;;;5092848;28;20357;-70
2022/06/01 12:09:35;;;;;;;7.47;2.67;;;;;;;;;;5094483;28;20036;-69
2022/06/01 12:12:01;;;;;;;9.75;2.90;;;;;;;;;;5094421;28;20099;-71
2022/06/01 12:14:38;;;;;;;14.95;3.25;;;;;;;;;;5094316;28;20031;-71
2022/06/01 12:17:25;;;;;;;13.63;3.90;;;;;;;;;;5094082;28;20046;-71
2022/06/01 12:20:14;;;;;;;11.27;3.60;;;;;;;;;;5094174;28;21286;-71
2022/06/01 12:28:47;;;;;;;9.38;2.72;;;;;;;;;;5094286;28;20422;-72
2022/06/01 12:31:16;;;;;;;11.07;2.55;;;;;;;;;;5094086;28;20042;-71
2022/06/01 12:34:00;;;;;;;9.85;3.50;;;;;;;;;;5093548;28;20020;-70
2022/06/01 12:36:28;;;;;;;7.25;2.75;;;;;;;;;;5093673;28;20542;-71
2022/06/01 12:38:54;;;;;;;11.85;3.63;;;;;;;;;;5093381;28;20020;-69
2022/06/01 12:41:21;;;;;;;10.18;3.10;;;;;;;;;;5093612;28;20515;-69
2022/06/01 12:43:53;;;;;;;11.18;2.90;;;;;;;;;;5093714;28;20103;-70
2022/06/01 12:46:19;;;;;;;;;;;;;;;;;;5094026;28;20353;-71
2022/06/01 12:48:45;;;;;;;9.18;2.60;;;;;;;;;;5093054;28;19961;-70
2022/06/01 12:51:11;;;;;;;5.75;2.60;;;;;;;;;;5092759;28;20036;-70
2022/06/01 12:53:44;;;;;;;5.35;2.78;;;;;;;;;;5093222;28;20031;-70
2022/06/01 12:56:10;;;;;;;6.68;2.40;;;;;;;;;;5093152;28;20036;-71
2022/06/01 12:58:36;;;;;;;10.18;2.60;;;;;;;;;;5092562;28;20093;-71
2022/06/01 13:01:03;;;;;;;9.73;2.90;;;;;;;;;;5092959;28;20055;-71
2022/06/01 13:03:32;;;;;;;10.13;2.72;;;;;;;;;;5092263;28;20031;-71
2022/06/01 13:05:59;;;;;;;6.22;3.08;;;;;;;;;;5092776;28;20013;-71
2022/06/01 13:08:32;;;;;;;5.07;2.30;;;;;;;;;;5092896;28;20106;-69
2022/06/01 13:11:11;;;;;;;8.05;2.60;;;;;;;;;;5092948;28;20043;-69
2022/06/01 13:13:37;;;;;;;13.85;2.97;;;;;;;;;;5093404;28;20027;-70
2022/06/01 13:16:05;;;;;;;4.85;2.45;;;;;;;;;;5093098;28;20119;-71
2022/06/01 13:18:38;;;;;;;9.13;2.75;;;;;;;;;;5092575;28;20095;-69
2022/06/01 13:21:07;;;;;;;10.27;3.03;;;;;;;;;;5092607;28;20046;-71
2022/06/01 13:23:49;;;;;;;8.40;2.55;;;;;;;;;;5092593;28;20479;-71
2022/06/01 13:26:20;;;;;;;7.45;2.40;;;;;;;;;;5092495;28;20028;-71
2022/06/01 13:28:46;;;;;;;6.35;2.42;;;;;;;;;;5092345;28;20024;-70
2022/06/01 13:31:13;;;;;;;9.15;2.50;;;;;;;;;;5092489;28;20028;-70
2022/06/01 13:33:41;;;;;;;8.82;2.53;;;;;;;;;;5093058;28;20027;-71
2022/06/01 13:36:13;;;;;;;6.63;2.40;;;;;;;;;;5093054;28;20060;-70
2022/06/01 13:38:49;;;;;;;7.43;2.35;;;;;;;;;;5092415;28;20116;-70
2022/06/01 13:41:20;;;;;;;11.32;2.45;;;;;;;;;;5092749;28;20053;-71
2022/06/01 13:43:47;;;;;;;8.13;2.95;;;;;;;;;;5092449;28;20024;-71
2022/06/01 13:46:15;;;;;;;9.63;2.50;;;;;;;;;;5092426;28;20028;-71
2022/06/01 13:48:53;;;;;;;10.35;2.72;;;;;;;;;;5092673;28;20384;-72
2022/06/01 13:51:22;;;;;;;9.50;2.42;;;;;;;;;;5092693;28;20039;-71
2022/06/01 13:53:48;;;;;;;12.60;2.47;;;;;;;;;;5092195;28;20105;-68
2022/06/01 13:56:15;;;;;;;14.07;3.47;;;;;;;;;;5092236;28;20046;-68
2022/06/01 13:58:52;;;;;;;8.00;2.75;;;;;;;;;;5092437;28;20066;-69
2022/06/01 14:01:30;;;;;;;8.27;2.55;;;;;;;;;;5092893;28;20468;-68
2022/06/01 14:03:58;;;;;;;14.65;3.03;;;;;;;;;;5092610;28;20106;-69
2022/06/01 14:06:34;;;;;;;6.38;2.63;;;;;;;;;;5091671;28;20442;-68
2022/06/01 14:09:01;;;;;;;9.68;2.70;;;;;;;;;;5092610;28;20030;-68
2022/06/01 14:11:31;;;;;;;14.18;3.40;;;;;;;;;;5092233;28;20137;-68